createdAt,value
2023-02-22T00:01:08.500Z,8.70
2023-02-22T00:03:36.132Z,10.57
2023-02-22T00:06:05.962Z,14.50
2023-02-22T00:08:36.435Z,10.10
2023-02-22T00:11:10.749Z,11.57
2023-02-22T00:13:39.503Z,11.10
2023-02-22T00:16:07.707Z,8.40
2023-02-22T00:18:35.374Z,10.50
2023-02-22T00:21:03.098Z,11.60
2023-02-22T00:23:32.177Z,11.05
2023-02-22T00:26:01.489Z,11.80
2023-02-22T00:28:31.001Z,12.13
2023-02-22T00:31:00.137Z,10.63
2023-02-22T00:33:27.931Z,8.40
2023-02-22T00:35:55.579Z,12.32
2023-02-22T00:38:23.251Z,8.73
2023-02-22T00:40:51.225Z,9.63
2023-02-22T00:43:18.917Z,9.82
2023-02-22T00:45:49.550Z,8.48
2023-02-22T00:48:18.645Z,7.68
2023-02-22T00:50:48.871Z,7.95
2023-02-22T00:53:16.687Z,9.20
2023-02-22T00:55:44.291Z,8.25
2023-02-22T00:58:13.104Z,9.65
2023-02-22T01:00:42.802Z,9.90
2023-02-22T01:03:12.337Z,13.27
2023-02-22T01:05:39.931Z,9.57
2023-02-22T01:08:10.298Z,7.43
2023-02-22T01:10:39.490Z,7.47
2023-02-22T01:13:09.572Z,8.13
2023-02-22T01:15:39.724Z,6.85
2023-02-22T01:18:08.070Z,8.40
2023-02-22T01:20:36.535Z,7.50
2023-02-22T01:23:08.179Z,7.38
2023-02-22T01:25:36.396Z,7.88
2023-02-22T01:28:06.185Z,6.32
2023-02-22T01:30:36.367Z,5.15
2023-02-22T01:33:06.461Z,9.15
2023-02-22T01:35:43.319Z,7.35
2023-02-22T01:38:11.322Z,7.35
2023-02-22T01:40:42.550Z,8.23
2023-02-22T01:43:22.693Z,6.80
2023-02-22T01:46:05.688Z,6.55
2023-02-22T01:48:46.341Z,6.40
2023-02-22T01:51:24.198Z,8.43
2023-02-22T01:53:54.550Z,6.32
2023-02-22T01:56:25.763Z,11.30
2023-02-22T01:58:59.012Z,8.50
2023-02-22T02:01:27.204Z,7.88
2023-02-22T02:04:00.121Z,10.18
2023-02-22T02:06:31.682Z,7.28
2023-02-22T02:09:24.130Z,9.82
2023-02-22T02:11:51.872Z,9.88
2023-02-22T02:14:22.062Z,10.65
2023-02-22T02:16:52.347Z,22.25
2023-02-22T02:19:52.280Z,22.58
2023-02-22T02:22:25.838Z,16.98
2023-02-22T02:25:18.479Z,19.20
2023-02-22T02:28:19.882Z,25.55
2023-02-22T02:31:26.072Z,19.92
2023-02-22T02:34:22.239Z,10.48
2023-02-22T02:37:12.850Z,9.45
2023-02-22T02:40:06.674Z,6.63
2023-02-22T02:42:42.588Z,7.30
2023-02-22T02:45:16.448Z,18.08
2023-02-22T02:50:30.000Z,6.53
2023-02-22T02:53:03.461Z,8.02
2023-02-22T02:55:33.150Z,9.07
2023-02-22T02:58:01.158Z,9.23
2023-02-22T03:00:39.648Z,8.68
2023-02-22T03:03:25.322Z,9.68
2023-02-22T03:06:18.163Z,8.80
2023-02-22T03:09:03.986Z,8.05
2023-02-22T03:11:48.771Z,8.23
2023-02-22T03:14:23.509Z,6.22
2023-02-22T03:17:18.912Z,7.97
2023-02-22T03:20:32.060Z,10.05
2023-02-22T03:23:29.761Z,10.30
2023-02-22T03:26:13.569Z,10.07
2023-02-22T03:28:46.741Z,8.18
2023-02-22T03:31:20.639Z,8.15
2023-02-22T03:33:55.914Z,10.15
2023-02-22T03:36:30.575Z,7.45
2023-02-22T03:39:00.876Z,10.25
2023-02-22T03:41:30.634Z,12.45
2023-02-22T03:44:08.646Z,12.13
2023-02-22T03:46:40.223Z,10.48
2023-02-22T03:49:35.496Z,11.43
2023-02-22T03:52:07.517Z,6.70
2023-02-22T03:54:36.166Z,13.15
2023-02-22T03:57:27.473Z,11.45
2023-02-22T04:00:08.185Z,8.55
2023-02-22T04:02:42.427Z,8.20
2023-02-22T04:05:15.663Z,9.05
2023-02-22T04:07:43.999Z,15.23
2023-02-22T04:10:16.464Z,13.73
2023-02-22T04:12:44.838Z,11.60
2023-02-22T04:15:15.877Z,14.32
2023-02-22T04:17:44.316Z,34.58
2023-02-22T04:20:15.638Z,18.05
2023-02-22T04:22:48.855Z,17.45
2023-02-22T04:25:16.805Z,20.40
2023-02-22T04:27:45.778Z,20.20
2023-02-22T04:30:14.116Z,25.38
2023-02-22T04:32:43.186Z,50.92
2023-02-22T04:35:13.227Z,45.08
2023-02-22T04:37:43.107Z,42.60
2023-02-22T04:40:11.917Z,71.93
2023-02-22T04:42:40.468Z,69.93
2023-02-22T04:45:09.838Z,87.05
2023-02-22T04:47:38.873Z,95.03
2023-02-22T04:50:09.015Z,80.82
2023-02-22T04:52:36.670Z,95.57
2023-02-22T04:55:05.268Z,82.32
2023-02-22T04:57:34.262Z,93.85
2023-02-22T05:00:01.900Z,123.68
2023-02-22T05:02:32.219Z,130.35
2023-02-22T05:04:59.878Z,138.18
2023-02-22T05:07:27.484Z,132.60
2023-02-22T05:09:55.094Z,156.60
2023-02-22T05:12:22.633Z,165.77
2023-02-22T05:14:50.199Z,190.38
2023-02-22T05:17:17.680Z,187.40
2023-02-22T05:19:45.144Z,179.05
2023-02-22T05:22:12.750Z,176.85
2023-02-22T05:24:40.277Z,180.48
2023-02-22T05:27:07.910Z,181.60
2023-02-22T05:29:35.507Z,184.23
2023-02-22T05:32:03.184Z,200.38
2023-02-22T05:34:31.283Z,208.00
2023-02-22T05:36:59.174Z,198.85
2023-02-22T05:39:26.778Z,204.05
2023-02-22T05:41:54.452Z,205.82
2023-02-22T05:44:22.032Z,200.35
2023-02-22T05:46:49.615Z,213.63
2023-02-22T05:49:17.251Z,225.98
2023-02-22T05:51:44.749Z,224.13
2023-02-22T05:54:12.248Z,227.70
2023-02-22T05:56:39.843Z,229.77
2023-02-22T05:59:07.406Z,233.77
2023-02-22T06:01:35.103Z,245.30
2023-02-22T06:04:02.817Z,244.90
2023-02-22T06:06:30.321Z,243.45
2023-02-22T06:08:57.893Z,262.58
2023-02-22T06:11:25.380Z,253.25
2023-02-22T06:13:53.883Z,277.38
2023-02-22T06:16:22.639Z,261.67
2023-02-22T06:18:50.637Z,280.17
2023-02-22T06:21:18.527Z,298.20
2023-02-22T06:23:46.252Z,265.40
2023-02-22T06:26:17.396Z,252.80
2023-02-22T06:28:48.494Z,261.52
2023-02-22T06:31:16.387Z,279.88
2023-02-22T06:33:44.136Z,269.05
2023-02-22T06:36:11.796Z,206.63
2023-02-22T06:38:39.398Z,238.93
2023-02-22T06:41:06.913Z,225.05
2023-02-22T06:43:34.415Z,220.80
2023-02-22T06:46:02.070Z,234.00
2023-02-22T06:48:29.738Z,204.55
2023-02-22T06:50:57.255Z,205.90
2023-02-22T06:53:24.994Z,197.70
2023-02-22T06:55:55.146Z,195.90
2023-02-22T06:58:22.807Z,180.30
2023-02-22T07:00:50.385Z,187.45
2023-02-22T07:03:18.043Z,193.00
2023-02-22T07:05:45.797Z,192.27
2023-02-22T07:08:13.894Z,190.48
2023-02-22T07:10:41.472Z,192.00
2023-02-22T07:13:09.719Z,207.57
2023-02-22T07:15:37.333Z,189.40
2023-02-22T07:18:05.060Z,188.10
2023-02-22T07:20:32.897Z,164.35
2023-02-22T07:23:01.574Z,163.95
2023-02-22T07:25:29.251Z,199.75
2023-02-22T07:27:56.983Z,109.10
2023-02-22T07:30:34.441Z,93.15
2023-02-22T07:33:05.528Z,90.15
2023-02-22T07:35:37.007Z,85.60
2023-02-22T07:38:08.677Z,79.90
2023-02-22T07:40:37.844Z,75.53
2023-02-22T07:43:14.904Z,65.43
2023-02-22T07:45:42.526Z,66.05
2023-02-22T07:48:12.913Z,58.53
2023-02-22T07:50:41.801Z,50.55
2023-02-22T07:53:15.712Z,49.35
2023-02-22T07:55:43.892Z,55.60
2023-02-22T07:58:15.466Z,47.53
2023-02-22T08:00:44.463Z,47.58
2023-02-22T08:03:14.007Z,46.97
2023-02-22T08:05:45.311Z,44.83
2023-02-22T08:08:14.935Z,41.78
2023-02-22T08:10:43.105Z,41.28
2023-02-22T08:13:11.171Z,42.17
2023-02-22T08:15:40.652Z,42.35
2023-02-22T08:18:11.318Z,37.35
2023-02-22T08:20:40.822Z,38.03
2023-02-22T08:23:09.927Z,40.42
2023-02-22T08:25:37.896Z,39.75
2023-02-22T08:28:07.980Z,35.65
2023-02-22T08:30:38.311Z,34.97
2023-02-22T08:33:07.879Z,43.17
2023-02-22T08:35:35.713Z,37.50
2023-02-22T08:38:06.156Z,41.35
2023-02-22T08:40:36.820Z,37.92
2023-02-22T08:43:05.250Z,39.15
2023-02-22T08:45:32.924Z,38.50
2023-02-22T08:48:00.470Z,35.72
2023-02-22T08:50:31.189Z,38.42
2023-02-22T08:53:01.179Z,35.10
2023-02-22T08:55:32.879Z,35.90
2023-02-22T08:58:03.314Z,36.13
2023-02-22T09:00:33.555Z,29.83
2023-02-22T09:03:02.509Z,28.88
2023-02-22T09:05:31.537Z,29.95
2023-02-22T09:08:00.207Z,29.95
2023-02-22T09:10:31.042Z,26.77
2023-02-22T09:13:01.460Z,28.40
2023-02-22T09:15:29.614Z,26.00
2023-02-22T09:17:57.495Z,21.85
2023-02-22T09:20:25.900Z,22.48
2023-02-22T09:22:55.056Z,22.15
2023-02-22T09:25:23.478Z,20.27
2023-02-22T09:27:52.942Z,22.55
2023-02-22T09:30:32.450Z,21.13
2023-02-22T09:33:13.115Z,20.00
2023-02-22T09:35:48.404Z,20.92
2023-02-22T09:38:25.157Z,21.35
2023-02-22T09:40:58.084Z,20.70
2023-02-22T09:44:11.247Z,21.33
2023-02-22T09:46:46.116Z,22.33
2023-02-22T09:49:30.030Z,22.48
2023-02-22T09:52:13.888Z,21.92
2023-02-22T09:54:46.000Z,19.90
2023-02-22T09:57:20.495Z,19.08
2023-02-22T10:00:13.389Z,19.65
2023-02-22T10:03:21.810Z,15.35
2023-02-22T10:05:59.305Z,18.20
2023-02-22T10:08:33.674Z,18.00
2023-02-22T10:11:13.390Z,18.05
2023-02-22T10:13:52.938Z,16.30
2023-02-22T10:16:31.744Z,17.08
2023-02-22T10:19:13.720Z,18.80
2023-02-22T10:22:11.503Z,18.52
2023-02-22T10:24:39.986Z,17.38
2023-02-22T10:27:20.989Z,19.02
2023-02-22T10:30:25.044Z,18.55
2023-02-22T10:33:03.743Z,18.63
2023-02-22T10:35:35.925Z,17.50
2023-02-22T10:38:15.196Z,16.60
2023-02-22T10:40:51.028Z,15.88
2023-02-22T10:43:18.658Z,15.00
2023-02-22T10:45:46.276Z,19.00
2023-02-22T10:48:18.906Z,17.38
2023-02-22T10:50:48.155Z,16.80
2023-02-22T10:53:16.148Z,16.30
2023-02-22T10:56:05.638Z,17.15
2023-02-22T10:58:50.593Z,20.20
2023-02-22T11:01:21.314Z,16.33
2023-02-22T11:03:59.099Z,17.42
2023-02-22T11:06:26.901Z,16.63
2023-02-22T11:09:15.295Z,12.85
2023-02-22T11:11:46.351Z,14.65
2023-02-22T11:14:27.028Z,14.85
2023-02-22T11:16:57.740Z,14.13
2023-02-22T11:19:31.052Z,13.82
2023-02-22T11:22:16.982Z,15.50
2023-02-22T11:25:07.764Z,20.33
2023-02-22T11:27:40.847Z,16.35
2023-02-22T11:30:23.636Z,15.43
2023-02-22T11:32:56.116Z,14.25
2023-02-22T11:35:29.589Z,16.98
2023-02-22T11:38:17.367Z,17.00
2023-02-22T11:40:45.879Z,15.80
2023-02-22T11:43:19.212Z,14.70
2023-02-22T11:46:06.358Z,13.98
2023-02-22T11:48:39.404Z,18.13
2023-02-22T11:51:14.546Z,17.02
2023-02-22T11:54:19.777Z,18.15
2023-02-22T11:56:51.716Z,19.33
2023-02-22T11:59:38.770Z,15.95
2023-02-22T12:02:09.767Z,14.50
2023-02-22T12:04:50.236Z,15.13
2023-02-22T12:07:53.433Z,17.27
2023-02-22T12:10:41.489Z,16.50
2023-02-22T12:13:30.339Z,22.42
2023-02-22T12:16:19.842Z,19.15
2023-02-22T12:19:15.602Z,17.67
2023-02-22T12:21:47.276Z,18.92
2023-02-22T12:24:23.866Z,17.48
2023-02-22T12:26:59.065Z,17.42
2023-02-22T12:29:37.916Z,18.20
2023-02-22T12:32:12.968Z,15.65
2023-02-22T12:34:43.550Z,19.23
2023-02-22T12:37:28.363Z,15.55
2023-02-22T12:40:09.921Z,16.98
2023-02-22T12:43:08.129Z,18.65
2023-02-22T12:46:03.257Z,16.30
2023-02-22T12:48:35.751Z,22.50
2023-02-22T12:51:22.207Z,21.67
2023-02-22T12:54:02.552Z,16.55
2023-02-22T12:56:48.486Z,15.32
2023-02-22T12:59:26.863Z,19.25
2023-02-22T13:02:01.104Z,20.00
2023-02-22T13:04:32.211Z,16.83
2023-02-22T13:07:18.969Z,19.83
2023-02-22T13:09:55.605Z,21.75
2023-02-22T13:12:52.407Z,19.55
2023-02-22T13:15:26.150Z,17.40
2023-02-22T13:18:10.868Z,18.15
2023-02-22T13:21:01.731Z,16.65
2023-02-22T13:23:51.226Z,18.67
2023-02-22T13:26:26.161Z,18.85
2023-02-22T13:29:09.088Z,18.70
2023-02-22T13:32:12.472Z,14.98
2023-02-22T13:35:01.529Z,19.77
2023-02-22T13:37:57.091Z,20.27
2023-02-22T13:40:43.209Z,15.50
2023-02-22T13:43:47.581Z,15.75
2023-02-22T13:46:46.088Z,14.07
2023-02-22T13:49:32.306Z,16.10
2023-02-22T13:52:14.351Z,15.45
2023-02-22T13:54:47.341Z,16.23
2023-02-22T13:57:24.130Z,19.60
2023-02-22T14:00:16.424Z,14.05
2023-02-22T14:03:15.004Z,18.98
2023-02-22T14:05:45.648Z,16.60
2023-02-22T14:08:19.421Z,17.13
2023-02-22T14:11:01.297Z,14.18
2023-02-22T14:13:33.709Z,16.77
2023-02-22T14:16:01.256Z,15.48
2023-02-22T14:18:42.455Z,17.60
2023-02-22T14:21:18.472Z,17.52
2023-02-22T14:24:06.583Z,14.50
2023-02-22T14:26:39.800Z,14.50
2023-02-22T14:29:10.610Z,13.57
2023-02-22T14:31:41.465Z,15.75
2023-02-22T14:34:12.188Z,15.80
2023-02-22T14:36:55.198Z,15.23
2023-02-22T14:39:38.729Z,17.42
2023-02-22T14:45:03.440Z,16.30
2023-02-22T14:48:01.697Z,17.13
2023-02-22T14:50:46.171Z,20.13
2023-02-22T14:53:13.796Z,19.15
2023-02-22T14:55:52.157Z,18.08
2023-02-22T14:58:23.897Z,19.27
2023-02-22T15:00:57.460Z,17.90
2023-02-22T15:03:37.748Z,22.98
2023-02-22T15:06:20.330Z,22.65
2023-02-22T15:08:49.713Z,21.87
2023-02-22T15:11:36.037Z,23.27
2023-02-22T15:14:25.167Z,22.95
2023-02-22T15:16:57.140Z,19.08
2023-02-22T15:19:28.469Z,25.50
2023-02-22T15:21:58.756Z,22.88
2023-02-22T15:24:31.844Z,24.35
2023-02-22T15:27:13.163Z,21.52
2023-02-22T15:29:44.862Z,20.98
2023-02-22T15:32:19.794Z,21.83
2023-02-22T15:34:47.443Z,24.55
2023-02-22T15:37:25.793Z,18.05
2023-02-22T15:39:59.798Z,21.25
2023-02-22T15:44:58.373Z,23.52
2023-02-22T15:47:29.719Z,28.58
2023-02-22T15:50:17.654Z,29.90
2023-02-22T15:53:23.535Z,34.80
2023-02-22T15:56:00.533Z,24.48
2023-02-22T15:58:30.349Z,23.90
2023-02-22T16:01:14.521Z,29.88
2023-02-22T16:03:47.714Z,27.23
2023-02-22T16:06:28.875Z,31.10
2023-02-22T16:08:59.284Z,25.88
2023-02-22T16:11:32.719Z,22.17
2023-02-22T16:14:05.209Z,25.65
2023-02-22T16:16:37.076Z,23.33
2023-02-22T16:19:42.623Z,20.33
2023-02-22T16:22:35.429Z,27.27
2023-02-22T16:25:16.986Z,21.38
2023-02-22T16:27:53.055Z,22.30
2023-02-22T16:30:37.202Z,19.85
2023-02-22T16:33:10.378Z,27.10
2023-02-22T16:35:38.037Z,20.90
2023-02-22T16:38:09.904Z,22.48
2023-02-22T16:40:44.942Z,19.67
2023-02-22T16:43:15.718Z,22.27
2023-02-22T16:45:43.596Z,19.13
2023-02-22T16:48:21.802Z,19.55
2023-02-22T16:50:51.465Z,17.85
2023-02-22T16:53:22.001Z,16.48
2023-02-22T16:55:52.202Z,18.65
2023-02-22T16:58:20.340Z,18.25
2023-02-22T17:00:48.026Z,19.25
2023-02-22T17:03:18.318Z,21.58
2023-02-22T17:05:45.991Z,21.95
2023-02-22T17:08:13.600Z,23.30
2023-02-22T17:10:41.267Z,17.85
2023-02-22T17:13:22.187Z,20.98
2023-02-22T17:15:52.159Z,20.20
2023-02-22T17:18:23.692Z,21.75
2023-02-22T17:20:52.961Z,20.25
2023-02-22T17:23:21.433Z,20.30
2023-02-22T17:25:54.971Z,17.92
2023-02-22T17:28:25.167Z,20.90
2023-02-22T17:30:54.646Z,21.75
2023-02-22T17:33:27.978Z,21.13
2023-02-22T17:35:58.989Z,18.92
2023-02-22T17:38:30.537Z,17.98
2023-02-22T17:41:00.020Z,20.73
2023-02-22T17:43:30.747Z,19.17
2023-02-22T17:45:58.375Z,17.42
2023-02-22T17:48:27.185Z,18.88
2023-02-22T17:50:55.161Z,18.60
2023-02-22T17:53:25.142Z,22.88
2023-02-22T17:55:53.192Z,18.67
2023-02-22T17:58:20.762Z,21.90
2023-02-22T18:00:50.946Z,14.65
2023-02-22T18:03:21.975Z,18.25
2023-02-22T18:05:51.031Z,19.30
2023-02-22T18:08:20.110Z,17.77
2023-02-22T18:10:52.499Z,14.93
2023-02-22T18:13:20.947Z,19.38
2023-02-22T18:15:49.057Z,19.00
2023-02-22T18:18:18.088Z,14.52
2023-02-22T18:20:47.826Z,14.15
2023-02-22T18:23:17.851Z,17.15
2023-02-22T18:26:03.850Z,16.27
2023-02-22T18:28:40.552Z,16.58
2023-02-22T18:31:16.426Z,14.25
2023-02-22T18:33:50.135Z,17.50
2023-02-22T18:36:23.521Z,16.67
2023-02-22T18:38:55.744Z,16.63
2023-02-22T18:41:28.693Z,20.27
2023-02-22T18:43:59.286Z,15.00
2023-02-22T18:46:28.068Z,14.82
2023-02-22T18:48:57.030Z,13.80
2023-02-22T18:51:25.853Z,14.20
2023-02-22T18:53:58.034Z,14.88
2023-02-22T18:56:30.223Z,16.65
2023-02-22T18:59:01.426Z,12.57
2023-02-22T19:01:30.415Z,13.98
2023-02-22T19:03:58.160Z,14.10
2023-02-22T19:06:25.735Z,10.27
2023-02-22T19:08:54.084Z,14.88
2023-02-22T19:16:52.269Z,13.75
2023-02-22T19:19:29.068Z,14.75
2023-02-22T19:22:00.193Z,15.82
2023-02-22T19:24:27.762Z,15.70
2023-02-22T19:26:57.840Z,13.32
2023-02-22T19:29:25.562Z,15.70
2023-02-22T19:31:54.059Z,17.08
2023-02-22T19:34:24.152Z,13.65
2023-02-22T19:36:51.657Z,14.23
2023-02-22T19:41:48.798Z,15.70
2023-02-22T19:44:16.328Z,14.48
2023-02-22T19:46:44.277Z,17.40
2023-02-22T19:49:12.333Z,14.88
2023-02-22T19:51:40.175Z,16.17
2023-02-22T19:54:09.324Z,16.35
2023-02-22T19:56:36.873Z,17.17
2023-02-22T19:59:14.164Z,19.50
2023-02-22T20:01:44.682Z,13.50
2023-02-22T20:04:18.710Z,17.10
2023-02-22T20:06:47.503Z,15.23
2023-02-22T20:09:18.354Z,15.43
2023-02-22T20:11:47.884Z,17.35
2023-02-22T20:14:23.719Z,16.05
2023-02-22T20:16:56.336Z,14.48
2023-02-22T20:19:24.875Z,15.20
2023-02-22T20:21:53.365Z,19.05
2023-02-22T20:24:20.907Z,18.02
2023-02-22T20:26:50.208Z,16.77
2023-02-22T20:29:18.261Z,17.25
2023-02-22T20:31:49.926Z,19.00
2023-02-22T20:34:17.545Z,15.73
2023-02-22T20:36:45.512Z,14.40
2023-02-22T20:39:14.596Z,14.60
2023-02-22T20:41:43.880Z,15.10
2023-02-22T20:44:14.578Z,13.13
2023-02-22T20:46:42.355Z,17.50
2023-02-22T20:49:12.973Z,11.68
2023-02-22T20:51:42.162Z,13.43
2023-02-22T20:54:12.493Z,17.75
2023-02-22T20:56:43.302Z,14.85
2023-02-22T20:59:15.932Z,17.23
2023-02-22T21:01:43.594Z,18.05
2023-02-22T21:04:12.158Z,16.83
2023-02-22T21:06:40.663Z,14.20
2023-02-22T21:09:13.387Z,18.45
2023-02-22T21:11:41.142Z,17.05
2023-02-22T21:14:10.331Z,18.42
2023-02-22T21:16:38.073Z,19.33
2023-02-22T21:19:07.603Z,17.65
2023-02-22T21:21:36.601Z,19.27
2023-02-22T21:24:04.447Z,19.40
2023-02-22T21:26:34.391Z,20.58
2023-02-22T21:29:05.082Z,21.33
2023-02-22T21:31:34.556Z,16.83
2023-02-22T21:34:02.471Z,19.80
2023-02-22T21:36:30.131Z,17.30
2023-02-22T21:39:08.613Z,21.23
2023-02-22T21:41:39.733Z,18.90
2023-02-22T21:44:08.252Z,17.77
2023-02-22T21:46:35.967Z,18.88
2023-02-22T21:49:03.625Z,19.75
2023-02-22T21:51:32.900Z,17.23
2023-02-22T21:54:02.536Z,20.05
2023-02-22T21:56:34.660Z,19.05
2023-02-22T21:59:15.012Z,17.05
2023-02-22T22:01:50.264Z,15.82
2023-02-22T22:04:21.151Z,14.43
2023-02-22T22:06:51.697Z,17.50
2023-02-22T22:09:20.753Z,15.82
2023-02-22T22:11:53.824Z,13.82
2023-02-22T22:14:24.070Z,14.93
2023-02-22T22:16:55.071Z,17.85
2023-02-22T22:19:23.208Z,17.17
2023-02-22T22:21:53.785Z,14.68
2023-02-22T22:24:23.042Z,18.85
2023-02-22T22:26:55.034Z,15.00
2023-02-22T22:29:25.322Z,11.20
2023-02-22T22:31:53.392Z,15.73
2023-02-22T22:34:24.523Z,15.23
2023-02-22T22:36:52.056Z,16.08
2023-02-22T22:39:21.399Z,17.67
2023-02-22T22:41:49.191Z,18.50
2023-02-22T22:44:22.552Z,13.00
2023-02-22T22:46:55.069Z,15.05
2023-02-22T22:49:25.526Z,14.05
2023-02-22T22:51:53.864Z,17.30
2023-02-22T22:54:21.509Z,15.68
2023-02-22T22:56:49.086Z,20.45
2023-02-22T22:59:16.740Z,17.27
2023-02-22T23:01:45.093Z,14.50
2023-02-22T23:04:16.702Z,15.80
2023-02-22T23:06:52.794Z,15.13
2023-02-22T23:09:23.447Z,16.38
2023-02-22T23:12:09.360Z,16.00
2023-02-22T23:14:44.469Z,9.25
2023-02-22T23:17:27.118Z,18.58
2023-02-22T23:19:55.320Z,19.03
2023-02-22T23:22:25.269Z,15.63
2023-02-22T23:24:52.771Z,22.60
2023-02-22T23:27:20.368Z,15.52
2023-02-22T23:29:49.930Z,17.77
2023-02-22T23:32:17.557Z,13.35
2023-02-22T23:34:45.128Z,17.00
2023-02-22T23:37:14.403Z,15.18
2023-02-22T23:39:42.569Z,16.55
2023-02-22T23:42:10.057Z,16.52
2023-02-22T23:44:37.637Z,15.48
2023-02-22T23:47:05.227Z,15.25
2023-02-22T23:49:39.055Z,15.55
2023-02-22T23:54:40.592Z,14.80
2023-02-22T23:57:09.149Z,14.43
2023-02-22T23:59:40.684Z,13.60
